Thunder radar more information blitzortung!


Radar de pluja more information rain snow radar


Visita la nostra xarxa de llocs de meteo:

Template documentation
and downloads

And another site



Extreme low temperature From: 13-12-2017 09:00 Until: 09:59 warning for: Extreme low temperature Level: Yellow info button

Pagina Historial Weather Underground text

Diari Resum January 10, 2016 Unitats:  Mètric    Imperial   Tant
« Previous Dia
SegĂźent Dia »
Diari Setmana Mensual Anual Personalitzada
  Maxima: Minima: Media:
Temperatura: 17.4 °C 13.4 °C 14.6 °C
Punt de rosada: 7.7 °C 6.3 °C 7.1 °C
Humitat: 67 % 49 % 61 %
Wind Speed: 27.8 km/h 4.2 km/h 11.9 km/h
RĂ fegues de vent: 27.8 km/h - -
Vent:- - WSW
Pression baro: 1007.0 hPa 1005.0 hPa -
Precipitacions: 0.0 mm    
Historical Graphs
 
 
Dades de taula per January 10, 2016
Temps Temperatura Punt de rosada Pression baro Vent Wind Speed RĂ fegues de vent Humitat Rainfall Rate (Hourly)
15:31 17.4 °C 6.6 °C 1006.0 hPa SW 23.0 km/h 23.0 km/h 49 % 0.0 mm
15:36 17.1 °C 6.3 °C 1006.0 hPa West 24.1 km/h 24.1 km/h 49 % 0.0 mm
15:41 17.3 °C 6.5 °C 1006.0 hPa SSW 13.0 km/h 13.0 km/h 49 % 0.0 mm
15:46 17.3 °C 6.5 °C 1006.0 hPa West 16.7 km/h 16.7 km/h 49 % 0.0 mm
15:51 17.3 °C 6.5 °C 1006.0 hPa SW 22.2 km/h 22.2 km/h 49 % 0.0 mm
15:56 17.3 °C 6.5 °C 1006.0 hPa WSW 22.2 km/h 22.2 km/h 49 % 0.0 mm
16:01 17.1 °C 6.6 °C 1006.0 hPa WSW 18.5 km/h 18.5 km/h 50 % 0.0 mm
16:06 17.0 °C 6.5 °C 1006.0 hPa SW 26.2 km/h 26.2 km/h 50 % 0.0 mm
16:11 16.8 °C 6.6 °C 1005.0 hPa West 18.5 km/h 18.5 km/h 51 % 0.0 mm
16:16 16.8 °C 6.6 °C 1005.0 hPa SW 27.8 km/h 27.8 km/h 51 % 0.0 mm
16:21 16.8 °C 6.6 °C 1005.0 hPa SW 20.4 km/h 20.4 km/h 51 % 0.0 mm
16:26 16.7 °C 6.8 °C 1006.0 hPa WSW 20.4 km/h 20.4 km/h 52 % 0.0 mm
16:31 16.6 °C 6.7 °C 1006.0 hPa SW 16.7 km/h 16.7 km/h 52 % 0.0 mm
16:36 16.5 °C 6.6 °C 1006.0 hPa SW 16.7 km/h 16.7 km/h 52 % 0.0 mm
16:41 16.3 °C 6.7 °C 1006.0 hPa SW 20.4 km/h 20.4 km/h 53 % 0.0 mm
16:46 16.1 °C 6.5 °C 1006.0 hPa SW 13.0 km/h 13.0 km/h 53 % 0.0 mm
16:51 16.0 °C 6.7 °C 1006.0 hPa West 14.8 km/h 14.8 km/h 54 % 0.0 mm
16:56 15.9 °C 6.9 °C 1006.0 hPa WSW 9.3 km/h 9.3 km/h 55 % 0.0 mm
17:01 15.8 °C 6.8 °C 1006.0 hPa WSW 16.7 km/h 16.7 km/h 55 % 0.0 mm
17:06 15.8 °C 7.1 °C 1006.0 hPa SSW 14.8 km/h 14.8 km/h 56 % 0.0 mm
17:11 15.6 °C 6.8 °C 1006.0 hPa South 14.8 km/h 14.8 km/h 56 % 0.0 mm
17:16 15.5 °C 7.0 °C 1006.0 hPa WSW 13.0 km/h 14.0 km/h 57 % 0.0 mm
17:21 15.5 °C 7.0 °C 1006.0 hPa WSW 14.5 km/h 14.5 km/h 57 % 0.0 mm
17:26 15.3 °C 6.8 °C 1007.0 hPa West 10.0 km/h 10.0 km/h 57 % 0.0 mm
17:31 15.3 °C 7.1 °C 1007.0 hPa SW 16.7 km/h 16.7 km/h 58 % 0.0 mm
17:36 15.1 °C 6.9 °C 1007.0 hPa SSW 11.4 km/h 11.4 km/h 58 % 0.0 mm
17:41 15.0 °C 7.1 °C 1006.0 hPa WSW 9.3 km/h 9.3 km/h 59 % 0.0 mm
17:46 14.9 °C 7.2 °C 1006.0 hPa West 11.1 km/h 11.1 km/h 60 % 0.0 mm
17:51 14.9 °C 7.2 °C 1006.0 hPa SW 11.1 km/h 11.1 km/h 60 % 0.0 mm
17:56 14.7 °C 7.0 °C 1006.0 hPa SSW 9.0 km/h 9.0 km/h 60 % 0.0 mm
18:01 14.6 °C 7.2 °C 1006.0 hPa SW 12.6 km/h 12.6 km/h 61 % 0.0 mm
18:06 14.6 °C 7.2 °C 1006.0 hPa WSW 9.3 km/h 9.3 km/h 61 % 0.0 mm
18:11 14.4 °C 7.2 °C 1006.0 hPa WSW 11.1 km/h 11.1 km/h 62 % 0.0 mm
18:16 14.4 °C 7.2 °C 1006.0 hPa SSW 13.0 km/h 13.0 km/h 62 % 0.0 mm
18:22 14.3 °C 7.3 °C 1006.0 hPa SW 13.0 km/h 13.0 km/h 63 % 0.0 mm
18:27 14.2 °C 7.3 °C 1006.0 hPa SW 13.0 km/h 13.0 km/h 63 % 0.0 mm
18:32 14.1 °C 7.2 °C 1006.0 hPa SSW 11.9 km/h 11.9 km/h 63 % 0.0 mm
18:37 14.1 °C 7.2 °C 1006.0 hPa SW 7.9 km/h 10.0 km/h 63 % 0.0 mm
18:42 14.1 °C 7.4 °C 1007.0 hPa SW 16.9 km/h 16.9 km/h 64 % 0.0 mm
18:47 14.1 °C 7.4 °C 1007.0 hPa SW 13.0 km/h 13.0 km/h 64 % 0.0 mm
18:52 14.1 °C 7.4 °C 1007.0 hPa WSW 10.0 km/h 10.0 km/h 64 % 0.0 mm
18:57 14.0 °C 7.3 °C 1007.0 hPa SW 16.4 km/h 16.4 km/h 64 % 0.0 mm
19:02 14.1 °C 7.4 °C 1007.0 hPa WSW 16.7 km/h 16.7 km/h 64 % 0.0 mm
19:07 14.0 °C 7.3 °C 1007.0 hPa West 14.8 km/h 14.8 km/h 64 % 0.0 mm
19:12 13.9 °C 7.2 °C 1007.0 hPa WSW 11.4 km/h 11.4 km/h 64 % 0.0 mm
19:17 13.9 °C 7.2 °C 1007.0 hPa West 7.4 km/h 7.4 km/h 64 % 0.0 mm
19:22 13.8 °C 7.1 °C 1007.0 hPa WSW 11.9 km/h 11.9 km/h 64 % 0.0 mm
19:27 13.8 °C 7.1 °C 1007.0 hPa WSW 9.5 km/h 9.5 km/h 64 % 0.0 mm
19:32 13.8 °C 7.3 °C 1007.0 hPa SW 11.1 km/h 11.1 km/h 65 % 0.0 mm
19:37 13.7 °C 7.0 °C 1007.0 hPa WSW 8.7 km/h 8.7 km/h 64 % 0.0 mm
19:42 13.6 °C 6.9 °C 1007.0 hPa SSW 9.5 km/h 9.5 km/h 64 % 0.0 mm
19:47 13.6 °C 7.2 °C 1007.0 hPa WSW 10.0 km/h 10.0 km/h 65 % 0.0 mm
19:52 13.5 °C 7.1 °C 1007.0 hPa SW 9.3 km/h 9.3 km/h 65 % 0.0 mm
19:57 13.5 °C 7.1 °C 1007.0 hPa SW 9.3 km/h 9.3 km/h 65 % 0.0 mm
20:02 13.5 °C 7.1 °C 1007.0 hPa SW 9.3 km/h 9.3 km/h 65 % 0.0 mm
20:07 13.4 °C 6.9 °C 1007.0 hPa SW 9.3 km/h 9.3 km/h 65 % 0.0 mm
20:12 13.4 °C 7.2 °C 1007.0 hPa West 7.4 km/h 9.5 km/h 66 % 0.0 mm
20:17 13.4 °C 7.2 °C 1007.0 hPa SSW 5.6 km/h 6.1 km/h 66 % 0.0 mm
20:22 13.5 °C 7.5 °C 1007.0 hPa West 9.3 km/h 9.3 km/h 67 % 0.0 mm
20:27 13.4 °C 7.4 °C 1006.0 hPa WSW 7.4 km/h 9.0 km/h 67 % 0.0 mm
20:32 13.4 °C 7.4 °C 1006.0 hPa WSW 7.4 km/h 9.0 km/h 67 % 0.0 mm
20:37 13.5 °C 7.5 °C 1006.0 hPa SW 7.4 km/h 7.4 km/h 67 % 0.0 mm
20:42 13.5 °C 7.5 °C 1006.0 hPa SW 7.4 km/h 7.4 km/h 67 % 0.0 mm
20:47 13.6 °C 7.6 °C 1006.0 hPa SW 7.4 km/h 7.4 km/h 67 % 0.0 mm
20:52 13.6 °C 7.6 °C 1006.0 hPa WSW 7.4 km/h 7.4 km/h 67 % 0.0 mm
20:57 13.6 °C 7.4 °C 1006.0 hPa WSW 7.4 km/h 7.4 km/h 66 % 0.0 mm
21:02 13.7 °C 7.4 °C 1006.0 hPa WSW 7.4 km/h 7.4 km/h 66 % 0.0 mm
21:07 13.8 °C 7.6 °C 1006.0 hPa WSW 7.4 km/h 7.4 km/h 66 % 0.0 mm
21:12 13.9 °C 7.7 °C 1006.0 hPa WSW 11.9 km/h 11.9 km/h 66 % 0.0 mm
21:17 13.9 °C 7.4 °C 1006.0 hPa West 11.1 km/h 11.1 km/h 65 % 0.0 mm
21:22 13.8 °C 7.3 °C 1006.0 hPa West 4.2 km/h 6.1 km/h 65 % 0.0 mm
21:27 13.8 °C 7.3 °C 1006.0 hPa West 4.2 km/h 6.1 km/h 65 % 0.0 mm
21:32 13.8 °C 7.3 °C 1006.0 hPa West 4.2 km/h 6.1 km/h 65 % 0.0 mm
21:37 13.7 °C 7.2 °C 1006.0 hPa West 4.2 km/h 6.1 km/h 65 % 0.0 mm
21:42 13.6 °C 7.2 °C 1006.0 hPa SW 9.3 km/h 9.3 km/h 65 % 0.0 mm
21:47 13.6 °C 7.2 °C 1006.0 hPa WSW 5.6 km/h 6.4 km/h 65 % 0.0 mm
21:52 13.4 °C 6.9 °C 1006.0 hPa West 6.1 km/h 6.9 km/h 65 % 0.0 mm
21:57 13.5 °C 7.1 °C 1006.0 hPa West 6.1 km/h 6.9 km/h 65 % 0.0 mm
22:02 13.4 °C 6.9 °C 1006.0 hPa West 6.1 km/h 6.9 km/h 65 % 0.0 mm
22:07 13.5 °C 7.1 °C 1006.0 hPa West 6.1 km/h 6.9 km/h 65 % 0.0 mm
22:12 13.6 °C 7.2 °C 1006.0 hPa SW 5.6 km/h 7.6 km/h 65 % 0.0 mm
22:17 13.6 °C 7.2 °C 1006.0 hPa SW 14.8 km/h 14.8 km/h 65 % 0.0 mm
22:22 13.7 °C 7.2 °C 1006.0 hPa SW 9.3 km/h 11.9 km/h 65 % 0.0 mm
22:27 13.9 °C 7.2 °C 1006.0 hPa SW 7.9 km/h 11.9 km/h 64 % 0.0 mm
22:32 14.0 °C 7.3 °C 1006.0 hPa SSW 14.8 km/h 14.8 km/h 64 % 0.0 mm
22:37 14.0 °C 7.1 °C 1006.0 hPa WSW 11.1 km/h 11.1 km/h 63 % 0.0 mm
22:47 14.1 °C 7.2 °C 1006.0 hPa WSW 10.0 km/h 10.0 km/h 63 % 0.0 mm
22:52 14.1 °C 6.9 °C 1006.0 hPa WSW 9.3 km/h 9.3 km/h 62 % 0.0 mm
22:57 14.2 °C 7.0 °C 1006.0 hPa WSW 10.0 km/h 10.0 km/h 62 % 0.0 mm
23:02 14.2 °C 7.0 °C 1006.0 hPa WSW 6.1 km/h 6.9 km/h 62 % 0.0 mm
23:07 14.3 °C 6.9 °C 1006.0 hPa SSW 18.5 km/h 18.5 km/h 61 % 0.0 mm
23:12 14.4 °C 6.9 °C 1006.0 hPa SW 13.0 km/h 13.0 km/h 61 % 0.0 mm
23:17 14.5 °C 7.1 °C 1006.0 hPa SW 13.0 km/h 13.0 km/h 61 % 0.0 mm
23:22 14.6 °C 6.9 °C 1006.0 hPa SW 13.0 km/h 13.0 km/h 60 % 0.0 mm
23:27 14.7 °C 7.0 °C 1005.0 hPa SW 13.0 km/h 13.0 km/h 60 % 0.0 mm
23:32 14.8 °C 7.1 °C 1005.0 hPa SSW 11.1 km/h 11.1 km/h 60 % 0.0 mm
Meteo Sesrovires
Elogis d' Weather Underground - 3 mb

Guio original per  Jim McMurry - jmcmurry@mwt.net Adaptat per a la plantilla per  Wim van der Kuil - Leuven-Template.eu

Trobareu la nostra informacio del temps tambe a:

Weather Underground

AWEKAS